createdAt,value
2022-12-22T00:54:13.703Z,97809.03
2022-12-22T01:14:22.309Z,97815.59
2022-12-22T01:55:06.959Z,97796.31
2022-12-22T03:36:34.674Z,97776.72
2022-12-22T04:16:55.690Z,97751.19
2022-12-22T04:37:09.826Z,97759.25
2022-12-22T04:57:24.445Z,97759.56
2022-12-22T05:17:30.107Z,97744.91
2022-12-22T05:37:38.388Z,97727.19
2022-12-22T06:17:57.654Z,97694.28
2022-12-22T06:38:03.970Z,97702.28
2022-12-22T06:58:06.716Z,97692.75
2022-12-22T07:18:09.146Z,97707.34
2022-12-22T07:38:11.821Z,97666.13
2022-12-22T07:58:18.705Z,97644.78
2022-12-22T08:18:22.054Z,97624.41
2022-12-22T08:38:24.712Z,97650.53
2022-12-22T08:58:27.872Z,97626.56
2022-12-22T09:18:39.031Z,97620.84
2022-12-22T09:38:42.871Z,97576.06
2022-12-22T09:58:45.527Z,97547.31
2022-12-22T10:19:10.576Z,97516.37
2022-12-22T10:39:18.566Z,97500.91
2022-12-22T10:59:25.143Z,97477.69
2022-12-22T11:19:34.090Z,97451.25
2022-12-22T11:59:48.448Z,97396.06
2022-12-22T12:19:51.210Z,97390.41
2022-12-22T12:39:54.046Z,97370.56
2022-12-22T12:59:56.553Z,97350.66
2022-12-22T13:19:59.030Z,97349.88
2022-12-22T13:40:01.773Z,97347.25
2022-12-22T14:00:04.245Z,97342.31
2022-12-22T14:20:06.975Z,97332.84
2022-12-22T14:40:09.663Z,97302.25
2022-12-22T15:00:12.081Z,97305.91
2022-12-22T15:20:14.638Z,97296.91
2022-12-22T15:40:17.428Z,97289.72
2022-12-22T16:00:20.149Z,97273.97
2022-12-22T16:20:22.864Z,97296.84
2022-12-22T16:40:25.937Z,97300.56
2022-12-22T17:00:28.353Z,97274.41
2022-12-22T17:20:31.098Z,97279.22
2022-12-22T17:40:35.936Z,97276.66
2022-12-22T18:00:38.447Z,97266.06
2022-12-22T18:20:41.002Z,97252.22
2022-12-22T18:40:44.086Z,97226.81
2022-12-22T19:00:46.734Z,97220.38
2022-12-22T19:20:49.461Z,97222.62
2022-12-22T19:40:52.493Z,97215.81
2022-12-22T20:00:55.522Z,97212.31
2022-12-22T20:20:58.294Z,97221.75
2022-12-22T20:41:01.320Z,97218.06
2022-12-22T21:01:04.002Z,97222.81
2022-12-22T21:21:06.430Z,97229.28
2022-12-22T21:41:09.164Z,97232.94
2022-12-22T22:01:12.378Z,97215.25
2022-12-22T22:41:43.488Z,97223.41
2022-12-22T23:01:46.590Z,97215.88
2022-12-22T23:21:50.352Z,97218.16
2022-12-22T23:41:53.972Z,97225.47
